Time;durP1;ratioP1;P1;durP2;ratioP2;P2;SDS_P1;SDS_P2;PMS_P1;PMS_P2;Temp;Humidity;BMP_temperature;BMP_pressure;BME280_temperature;BME280_humidity;BME280_pressure;Samples;Min_cycle;Max_cycle;Signal;HPM_P1;HPM_P2
2023/08/28 00:01:25;;;;;;;0.05;0.05;;;;;;;12.28;100.00;96216.34;4841751;29;20500;-80
2023/08/28 00:04:10;;;;;;;0.10;0.10;;;;;;;12.33;100.00;96209.38;4842164;29;20052;-80
2023/08/28 00:06:56;;;;;;;0.10;0.10;;;;;;;12.44;100.00;96206.44;4841297;29;20049;-80
2023/08/28 00:09:42;;;;;;;0.10;0.10;;;;;;;12.48;100.00;96210.22;4841416;29;20472;-80
2023/08/28 00:12:28;;;;;;;0.20;0.20;;;;;;;12.41;100.00;96212.34;4843276;29;20057;-80
2023/08/28 00:15:14;;;;;;;0.10;0.10;;;;;;;12.36;100.00;96211.53;4843259;29;20112;-80
2023/08/28 00:18:00;;;;;;;0.10;0.10;;;;;;;12.20;100.00;96213.38;4840266;29;20045;-80
2023/08/28 00:20:45;;;;;;;0.10;0.10;;;;;;;12.27;100.00;96205.88;4841349;29;20049;-80
2023/08/28 00:23:32;;;;;;;0.00;0.00;;;;;;;12.28;100.00;96208.28;4842407;29;20720;-80
2023/08/28 00:26:18;;;;;;;0.10;0.10;;;;;;;12.23;100.00;96210.97;4841460;29;20053;-80
2023/08/28 00:29:04;;;;;;;0.10;0.10;;;;;;;12.28;100.00;96207.50;4832048;29;20053;-80
2023/08/28 00:31:49;;;;;;;0.10;0.10;;;;;;;12.32;100.00;96195.16;4841780;29;20046;-80
2023/08/28 00:34:35;;;;;;;0.10;0.10;;;;;;;12.29;100.00;96187.63;4844748;29;20088;-80
2023/08/28 00:37:22;;;;;;;0.10;0.10;;;;;;;12.23;100.00;96197.56;4844854;29;20049;-80
2023/08/28 00:40:13;;;;;;;0.10;0.10;;;;;;;12.33;100.00;96209.38;4844516;29;20049;-80
2023/08/28 00:42:59;;;;;;;0.10;0.10;;;;;;;12.21;100.00;96202.38;4843870;29;20410;-80
2023/08/28 00:45:45;;;;;;;0.00;0.00;;;;;;;11.91;100.00;96195.06;4844056;29;20042;-80
2023/08/28 00:48:31;;;;;;;0.10;0.10;;;;;;;11.67;100.00;96183.13;4843621;29;20148;-80
2023/08/28 00:51:17;;;;;;;0.10;0.10;;;;;;;11.47;100.00;96185.72;4842411;29;20056;-80
2023/08/28 00:54:04;;;;;;;0.10;0.10;;;;;;;11.49;100.00;96179.03;4840598;29;20702;-81
2023/08/28 00:56:52;;;;;;;0.10;0.10;;;;;;;11.40;100.00;96184.09;4843826;29;20081;-80
2023/08/28 00:59:38;;;;;;;0.10;0.10;;;;;;;11.42;100.00;96176.59;4842323;29;20134;-80
2023/08/28 01:02:24;;;;;;;0.00;0.00;;;;;;;11.44;100.00;96177.16;4843153;29;20424;-80
2023/08/28 01:05:11;;;;;;;0.10;0.10;;;;;;;11.38;100.00;96164.78;4840284;29;20057;-80
2023/08/28 01:08:33;;;;;;;0.10;0.10;;;;;;;11.30;100.00;96157.25;4841574;29;20697;-80
2023/08/28 01:11:38;;;;;;;;;;;;;;;11.18;100.00;96145.13;4842053;29;20052;-80
2023/08/28 01:14:28;;;;;;;0.10;0.10;;;;;;;11.04;100.00;96144.75;4842941;29;20032;-81
2023/08/28 01:17:14;;;;;;;0.10;0.10;;;;;;;10.91;100.00;96137.19;4843368;29;20053;-81
2023/08/28 01:20:04;;;;;;;0.10;0.10;;;;;;;10.75;100.00;96147.81;4840406;29;20050;-81
2023/08/28 01:22:57;;;;;;;0.10;0.10;;;;;;;10.76;100.00;96140.56;4841147;29;20064;-81
2023/08/28 01:25:44;;;;;;;0.10;0.10;;;;;;;10.66;100.00;96138.66;4843423;29;20129;-81
2023/08/28 01:28:30;;;;;;;0.10;0.10;;;;;;;10.64;100.00;96145.28;4842477;29;20491;-81
2023/08/28 01:31:16;;;;;;;0.10;0.10;;;;;;;10.62;100.00;96142.88;4830239;29;20134;-81
2023/08/28 01:34:01;;;;;;;0.10;0.10;;;;;;;10.59;100.00;96141.53;4828426;29;20045;-80
2023/08/28 01:36:55;;;;;;;0.10;0.10;;;;;;;10.61;100.00;96151.97;4842216;29;20056;-80
2023/08/28 01:39:45;;;;;;;0.00;0.00;;;;;;;10.56;100.00;96147.38;4842709;29;20049;-81
2023/08/28 01:42:33;;;;;;;0.10;0.10;;;;;;;10.55;100.00;96145.75;4842833;29;20487;-81
2023/08/28 01:45:20;;;;;;;0.10;0.10;;;;;;;10.54;100.00;96146.84;4839308;29;20160;-81
2023/08/28 01:48:07;;;;;;;0.10;0.10;;;;;;;10.08;100.00;96158.94;4828160;29;20056;-81
2023/08/28 01:50:53;;;;;;;0.20;0.20;;;;;;;10.20;100.00;96159.63;4830117;29;20109;-81
2023/08/28 01:53:39;;;;;;;0.10;0.10;;;;;;;10.30;100.00;96158.94;4842563;29;21013;-81
2023/08/28 01:56:26;;;;;;;0.00;0.00;;;;;;;10.25;100.00;96158.88;4829957;29;20531;-81
2023/08/28 01:59:13;;;;;;;0.10;0.10;;;;;;;10.02;100.00;96155.41;4843046;29;20046;-80
2023/08/28 02:01:59;;;;;;;0.10;0.10;;;;;;;9.88;100.00;96164.06;4842920;29;20194;-81
2023/08/28 02:04:45;;;;;;;0.10;0.10;;;;;;;9.71;100.00;96174.84;4841669;29;20060;-80
2023/08/28 02:07:30;;;;;;;0.13;0.13;;;;;;;9.75;100.00;96181.31;4831493;29;20060;-80
2023/08/28 02:10:18;;;;;;;0.10;0.10;;;;;;;9.83;100.00;96174.72;4831286;29;20076;-81
2023/08/28 02:13:03;;;;;;;0.10;0.10;;;;;;;9.72;100.00;96166.56;4843494;29;20049;-81
2023/08/28 02:15:49;;;;;;;0.10;0.10;;;;;;;9.57;100.00;96177.09;4842967;29;20543;-80
2023/08/28 02:18:35;;;;;;;0.13;0.13;;;;;;;9.46;100.00;96194.03;4841216;29;20052;-81
2023/08/28 02:21:21;;;;;;;0.10;0.10;;;;;;;9.37;100.00;96214.22;4829684;29;20743;-80
2023/08/28 02:24:07;;;;;;;0.00;0.00;;;;;;;9.33;100.00;96215.75;4843409;29;20160;-81
2023/08/28 02:26:53;;;;;;;0.10;0.10;;;;;;;9.29;100.00;96220.78;4842198;29;20626;-80
2023/08/28 02:29:39;;;;;;;0.10;0.10;;;;;;;9.35;100.00;96216.34;4842562;29;20073;-80
2023/08/28 02:32:25;;;;;;;0.10;0.10;;;;;;;9.37;100.00;96206.22;4841902;29;20175;-80
2023/08/28 02:35:12;;;;;;;0.10;0.10;;;;;;;9.48;100.00;96203.41;4841976;29;20042;-80
2023/08/28 02:37:58;;;;;;;0.00;0.00;;;;;;;9.40;100.00;96205.72;4839991;29;20328;-79
2023/08/28 02:40:45;;;;;;;0.10;0.10;;;;;;;9.27;100.00;96206.09;4842593;29;20104;-80
2023/08/28 02:43:31;;;;;;;0.10;0.10;;;;;;;9.29;100.00;96210.13;4841740;29;20049;-80
2023/08/28 02:46:17;;;;;;;0.10;0.10;;;;;;;9.42;100.00;96188.41;4842219;29;20042;-80
2023/08/28 02:49:02;;;;;;;0.10;0.10;;;;;;;9.53;100.00;96192.00;4842177;29;20061;-80
2023/08/28 02:51:48;;;;;;;0.10;0.10;;;;;;;9.51;100.00;96186.09;4841101;29;20057;-79
2023/08/28 02:54:34;;;;;;;0.10;0.10;;;;;;;9.55;100.00;96197.09;4839952;29;20061;-79
2023/08/28 02:57:20;;;;;;;0.10;0.10;;;;;;;9.58;100.00;96199.28;4828580;29;20053;-80
2023/08/28 03:00:07;;;;;;;0.10;0.10;;;;;;;9.60;100.00;96192.63;4841346;29;20093;-80
2023/08/28 03:02:53;;;;;;;0.10;0.10;;;;;;;9.62;100.00;96193.19;4839537;29;20463;-80
2023/08/28 03:05:46;;;;;;;0.10;0.10;;;;;;;9.67;100.00;96189.78;4840471;29;20419;-80
2023/08/28 03:08:32;;;;;;;0.10;0.10;;;;;;;9.66;100.00;96180.94;4842456;29;20049;-80
2023/08/28 03:11:18;;;;;;;0.10;0.10;;;;;;;9.69;100.00;96183.13;4840191;29;20790;-80
2023/08/28 03:14:04;;;;;;;0.10;0.10;;;;;;;9.63;100.00;96191.31;4841165;29;20069;-80
2023/08/28 03:16:50;;;;;;;0.10;0.10;;;;;;;9.54;100.00;96193.63;4841685;29;20041;-80
2023/08/28 03:19:36;;;;;;;0.10;0.10;;;;;;;9.48;100.00;96202.59;4826460;29;20060;-80
2023/08/28 03:22:22;;;;;;;0.00;0.00;;;;;;;9.44;100.00;96201.50;4840070;29;20734;-80
2023/08/28 03:25:10;;;;;;;0.10;0.10;;;;;;;9.49;100.00;96188.19;4840181;29;20073;-79
2023/08/28 03:27:56;;;;;;;0.10;0.10;;;;;;;9.46;100.00;96183.34;4839678;29;20052;-80
2023/08/28 03:30:42;;;;;;;0.10;0.10;;;;;;;9.17;100.00;96170.16;4839499;29;20662;-80
2023/08/28 03:33:30;;;;;;;0.10;0.10;;;;;;;9.23;100.00;96178.25;4839942;29;20056;-80
2023/08/28 03:36:16;;;;;;;0.10;0.10;;;;;;;9.31;100.00;96175.16;4841427;29;20045;-80
2023/08/28 03:39:02;;;;;;;0.10;0.10;;;;;;;9.20;100.00;96180.34;4840461;29;20057;-80
2023/08/28 03:41:48;;;;;;;0.10;0.10;;;;;;;9.16;100.00;96173.06;4840027;29;20041;-80
2023/08/28 03:44:34;;;;;;;0.10;0.10;;;;;;;9.12;100.00;96167.44;4840682;29;20055;-79
2023/08/28 03:47:20;;;;;;;0.10;0.10;;;;;;;9.05;100.00;96166.81;4841345;29;20048;-80
2023/08/28 03:50:06;;;;;;;0.10;0.10;;;;;;;9.10;100.00;96174.84;4839699;29;20558;-80
2023/08/28 03:52:51;;;;;;;0.10;0.10;;;;;;;9.14;100.00;96176.00;4838233;29;20045;-80
2023/08/28 03:55:37;;;;;;;0.10;0.10;;;;;;;9.20;100.00;96177.69;4840014;29;20543;-79
2023/08/28 03:58:26;;;;;;;0.10;0.10;;;;;;;9.03;100.00;96168.91;4841769;29;20539;-80
2023/08/28 04:01:12;;;;;;;0.10;0.10;;;;;;;8.94;100.00;96175.69;4826730;29;20045;-79
2023/08/28 04:03:59;;;;;;;0.10;0.10;;;;;;;8.96;100.00;96178.16;4847037;29;20049;-80
2023/08/28 04:06:46;;;;;;;0.10;0.10;;;;;;;8.97;100.00;96172.56;4847620;29;20041;-80
2023/08/28 04:09:32;;;;;;;0.10;0.10;;;;;;;8.79;100.00;96167.47;4847190;29;20042;-79
2023/08/28 04:12:18;;;;;;;0.10;0.10;;;;;;;8.84;100.00;96159.53;4835433;29;20108;-80
2023/08/28 04:15:08;;;;;;;0.10;0.10;;;;;;;8.82;100.00;96159.00;4834865;29;20041;-80
2023/08/28 04:17:59;;;;;;;0.10;0.10;;;;;;;8.77;100.00;96165.03;4847372;29;20542;-80
2023/08/28 04:20:45;;;;;;;0.05;0.05;;;;;;;8.78;100.00;96160.50;4846641;29;20467;-80
2023/08/28 04:23:31;;;;;;;0.10;0.10;;;;;;;8.88;100.00;96155.34;4837262;29;20053;-80
2023/08/28 04:26:19;;;;;;;0.10;0.10;;;;;;;8.81;100.00;96147.50;4845552;29;20053;-80
2023/08/28 04:29:04;;;;;;;0.10;0.10;;;;;;;8.77;100.00;96145.56;4847567;29;20716;-80
2023/08/28 04:31:52;;;;;;;0.10;0.10;;;;;;;8.78;100.00;96161.31;4847111;29;20096;-80
2023/08/28 04:34:40;;;;;;;0.10;0.10;;;;;;;8.56;100.00;96142.59;4844893;29;20525;-80
2023/08/28 04:37:26;;;;;;;0.10;0.10;;;;;;;8.82;100.00;96145.66;4849888;29;20440;-80
2023/08/28 04:40:12;;;;;;;0.10;0.10;;;;;;;8.87;100.00;96135.03;4846866;29;20046;-80
2023/08/28 04:42:58;;;;;;;0.10;0.10;;;;;;;8.91;100.00;96125.50;4845894;29;20233;-80
2023/08/28 04:45:44;;;;;;;0.15;0.15;;;;;;;8.94;100.00;96125.00;4835580;29;20045;-80
2023/08/28 04:48:30;;;;;;;0.10;0.10;;;;;;;8.90;100.00;96121.22;4847500;29;20108;-80
2023/08/28 04:51:18;;;;;;;0.10;0.10;;;;;;;8.94;100.00;96122.31;4847138;29;20053;-79
2023/08/28 04:54:04;;;;;;;0.10;0.10;;;;;;;9.04;100.00;96124.34;4848663;29;20042;-80
2023/08/28 04:56:51;;;;;;;0.10;0.10;;;;;;;9.14;100.00;96135.16;4844510;29;20050;-80
2023/08/28 04:59:40;;;;;;;0.03;0.03;;;;;;;9.19;100.00;96136.03;4847713;29;20056;-80
2023/08/28 05:02:26;;;;;;;0.10;0.10;;;;;;;9.20;100.00;96140.31;4846846;29;20523;-79
2023/08/28 05:05:13;;;;;;;0.10;0.10;;;;;;;9.27;100.00;96142.00;4846147;29;20048;-80
2023/08/28 05:07:59;;;;;;;0.10;0.10;;;;;;;9.31;100.00;96138.56;4845400;29;20048;-80
2023/08/28 05:10:45;;;;;;;0.00;0.00;;;;;;;9.35;100.00;96136.22;4842840;29;20061;-80
2023/08/28 05:13:30;;;;;;;0.10;0.10;;;;;;;9.46;100.00;96129.94;4844659;29;20093;-80
2023/08/28 05:16:17;;;;;;;0.10;0.10;;;;;;;9.46;100.00;96133.41;4845125;29;20128;-80
2023/08/28 05:19:03;;;;;;;0.10;0.10;;;;;;;9.49;100.00;96134.78;4842555;29;20049;-80
2023/08/28 05:21:49;;;;;;;0.10;0.10;;;;;;;9.40;100.00;96126.41;4845230;29;20053;-80
2023/08/28 05:24:38;;;;;;;0.10;0.10;;;;;;;9.45;100.00;96129.13;4833728;29;20076;-80
2023/08/28 05:27:24;;;;;;;0.10;0.10;;;;;;;9.32;100.00;96136.72;4844999;29;20053;-81
2023/08/28 05:30:10;;;;;;;0.10;0.10;;;;;;;9.43;100.00;96130.44;4831189;29;20543;-80
2023/08/28 05:32:56;;;;;;;0.10;0.10;;;;;;;9.54;100.00;96136.72;4834785;29;20056;-80
2023/08/28 05:35:42;;;;;;;0.10;0.10;;;;;;;9.62;100.00;96136.28;4849474;29;20493;-80
2023/08/28 05:38:29;;;;;;;0.17;0.17;;;;;;;9.70;100.00;96139.31;4842495;29;20081;-80
2023/08/28 05:41:15;;;;;;;0.10;0.10;;;;;;;9.86;100.00;96134.94;4845236;29;20515;-80
2023/08/28 05:44:01;;;;;;;0.10;0.10;;;;;;;9.95;100.00;96133.41;4845466;29;20044;-81
2023/08/28 05:46:47;;;;;;;0.10;0.10;;;;;;;9.96;100.00;96129.72;4844148;29;20611;-80
2023/08/28 05:49:33;;;;;;;0.10;0.10;;;;;;;9.96;100.00;96140.41;4840760;29;20164;-81
2023/08/28 05:52:19;;;;;;;0.03;0.03;;;;;;;10.05;100.00;96133.53;4828611;29;20057;-80
2023/08/28 05:55:06;;;;;;;0.00;0.00;;;;;;;10.25;100.00;96140.16;4842682;29;20551;-80
2023/08/28 05:57:52;;;;;;;0.10;0.10;;;;;;;10.29;100.00;96141.28;4842145;29;20045;-80
2023/08/28 06:00:38;;;;;;;0.10;0.10;;;;;;;10.40;100.00;96137.63;4841454;29;20050;-80
2023/08/28 06:03:24;;;;;;;0.10;0.10;;;;;;;10.59;100.00;96135.38;4843647;29;20085;-80
2023/08/28 06:06:12;;;;;;;0.10;0.10;;;;;;;10.68;100.00;96136.50;4841328;29;20516;-80
2023/08/28 06:08:58;;;;;;;0.10;0.10;;;;;;;10.77;100.00;96126.94;4842434;29;20053;-80
2023/08/28 06:11:43;;;;;;;0.10;0.10;;;;;;;10.92;100.00;96139.63;4831808;29;20092;-80
2023/08/28 06:14:29;;;;;;;0.10;0.10;;;;;;;11.01;100.00;96145.28;4842240;29;20092;-80
2023/08/28 06:17:15;;;;;;;0.10;0.10;;;;;;;11.09;100.00;96140.25;4830350;29;20044;-80
2023/08/28 06:20:01;;;;;;;0.15;0.15;;;;;;;11.20;100.00;96143.78;4829032;29;20602;-80
2023/08/28 06:22:47;;;;;;;0.10;0.10;;;;;;;11.49;100.00;96146.06;4842803;29;20076;-80
2023/08/28 06:25:33;;;;;;;0.10;0.10;;;;;;;11.69;100.00;96138.13;4830448;29;20053;-80
2023/08/28 06:28:19;;;;;;;0.10;0.10;;;;;;;11.89;100.00;96137.41;4840980;29;20680;-80
2023/08/28 06:31:05;;;;;;;0.10;0.10;;;;;;;12.05;100.00;96133.69;4841224;29;20417;-80
2023/08/28 06:33:50;;;;;;;0.10;0.10;;;;;;;12.15;100.00;96132.91;4842317;29;20048;-80
2023/08/28 06:36:36;;;;;;;0.10;0.10;;;;;;;12.19;100.00;96131.28;4841877;29;20101;-80
2023/08/28 06:39:22;;;;;;;0.08;0.08;;;;;;;12.28;100.00;96138.53;4843673;29;20567;-80
2023/08/28 06:42:08;;;;;;;0.10;0.10;;;;;;;12.28;100.00;96135.84;4840115;29;20069;-80
2023/08/28 06:44:55;;;;;;;0.10;0.10;;;;;;;12.27;100.00;96144.97;4841659;29;20136;-80
2023/08/28 06:47:41;;;;;;;0.10;0.10;;;;;;;12.43;100.00;96145.81;4842688;29;20049;-80
2023/08/28 06:50:27;;;;;;;0.10;0.10;;;;;;;12.23;100.00;96145.81;4842825;29;20041;-80
2023/08/28 06:53:13;;;;;;;0.10;0.10;;;;;;;12.42;100.00;96149.56;4842544;29;20205;-80
2023/08/28 06:55:59;;;;;;;0.10;0.10;;;;;;;12.36;100.00;96145.25;4841797;29;20070;-80
2023/08/28 06:58:44;;;;;;;0.10;0.10;;;;;;;12.73;100.00;96157.63;4840368;29;20760;-80
2023/08/28 07:01:31;;;;;;;0.10;0.10;;;;;;;12.89;100.00;96163.78;4842338;29;20186;-80
2023/08/28 07:04:16;;;;;;;0.17;0.17;;;;;;;13.06;100.00;96161.63;4843107;29;20041;-81
2023/08/28 07:07:02;;;;;;;0.10;0.10;;;;;;;13.11;100.00;96146.31;4841269;29;20171;-81
2023/08/28 07:09:48;;;;;;;0.10;0.10;;;;;;;13.28;100.00;96155.97;4840500;29;20046;-80
2023/08/28 07:12:34;;;;;;;0.13;0.13;;;;;;;13.36;100.00;96158.91;4842290;29;20045;-80
2023/08/28 07:15:20;;;;;;;0.20;0.20;;;;;;;13.38;100.00;96145.19;4843614;29;20564;-80
2023/08/28 07:18:06;;;;;;;0.10;0.10;;;;;;;13.45;100.00;96156.44;4839867;29;20056;-80
2023/08/28 07:20:52;;;;;;;0.10;0.10;;;;;;;13.45;100.00;96164.50;4841485;29;20059;-80
2023/08/28 07:23:38;;;;;;;0.20;0.20;;;;;;;13.53;100.00;96147.03;4840402;29;20228;-80
2023/08/28 07:26:24;;;;;;;0.20;0.20;;;;;;;13.62;100.00;96148.88;4842455;29;20156;-80
2023/08/28 07:29:09;;;;;;;0.10;0.10;;;;;;;13.76;100.00;96140.22;4828704;29;20049;-81
2023/08/28 07:31:55;;;;;;;0.10;0.10;;;;;;;13.85;100.00;96143.94;4838982;29;20053;-80
2023/08/28 07:34:41;;;;;;;0.10;0.10;;;;;;;14.00;100.00;96140.34;4840666;29;20061;-81
2023/08/28 07:37:30;;;;;;;0.20;0.20;;;;;;;14.01;100.00;96150.88;4841985;29;20461;-81
2023/08/28 07:40:16;;;;;;;0.20;0.20;;;;;;;14.08;100.00;96150.53;4841336;29;20077;-80
2023/08/28 07:43:02;;;;;;;0.10;0.10;;;;;;;14.11;100.00;96148.09;4842989;29;20041;-80
2023/08/28 07:45:48;;;;;;;0.10;0.10;;;;;;;14.20;100.00;96157.19;4840486;29;20045;-80
2023/08/28 07:48:34;;;;;;;0.10;0.10;;;;;;;14.26;100.00;96160.66;4842100;29;20053;-81
2023/08/28 07:51:20;;;;;;;0.10;0.10;;;;;;;14.39;100.00;96153.84;4841405;29;20071;-81
2023/08/28 07:54:06;;;;;;;0.10;0.10;;;;;;;14.55;100.00;96147.28;4841673;29;20042;-80
2023/08/28 07:56:51;;;;;;;0.13;0.13;;;;;;;14.59;100.00;96145.66;4841810;29;20664;-80
2023/08/28 07:59:37;;;;;;;0.10;0.10;;;;;;;14.60;100.00;96149.94;4841563;29;20081;-81
2023/08/28 08:02:23;;;;;;;0.20;0.20;;;;;;;14.32;100.00;96138.03;4841728;29;20064;-81
2023/08/28 08:05:12;;;;;;;0.10;0.10;;;;;;;14.57;100.00;96141.66;4840075;29;20980;-81
2023/08/28 08:07:58;;;;;;;0.10;0.10;;;;;;;14.71;100.00;96142.63;4839606;29;20042;-80
2023/08/28 08:10:44;;;;;;;0.10;0.10;;;;;;;14.60;100.00;96135.69;4841302;29;20049;-80
2023/08/28 08:13:30;;;;;;;0.10;0.10;;;;;;;14.66;100.00;96137.25;4841668;29;20054;-80
2023/08/28 08:16:15;;;;;;;0.10;0.10;;;;;;;14.88;100.00;96139.50;4842093;29;20434;-81
2023/08/28 08:19:02;;;;;;;0.08;0.08;;;;;;;15.09;100.00;96140.91;4839552;29;20960;-80
2023/08/28 08:21:48;;;;;;;0.10;0.10;;;;;;;15.15;100.00;96147.84;4839407;29;20049;-80
2023/08/28 08:24:34;;;;;;;0.10;0.10;;;;;;;15.16;100.00;96145.97;4839406;29;20060;-80
2023/08/28 08:27:19;;;;;;;0.10;0.10;;;;;;;15.09;100.00;96140.09;4840357;29;20110;-80
2023/08/28 08:30:07;;;;;;;0.10;0.10;;;;;;;15.23;100.00;96135.66;4839749;29;20651;-80
2023/08/28 08:32:53;;;;;;;0.10;0.10;;;;;;;15.25;100.00;96134.28;4839495;29;20551;-80
2023/08/28 08:35:39;;;;;;;0.10;0.10;;;;;;;15.21;100.00;96122.47;4838591;29;20053;-81
2023/08/28 08:38:25;;;;;;;0.10;0.10;;;;;;;15.47;100.00;96116.78;4839942;29;20046;-81
2023/08/28 08:41:11;;;;;;;0.20;0.20;;;;;;;15.60;100.00;96118.78;4841606;29;20053;-81
2023/08/28 08:43:57;;;;;;;0.10;0.10;;;;;;;15.55;100.00;96114.25;4840441;29;20068;-81
2023/08/28 08:46:45;;;;;;;0.10;0.10;;;;;;;15.61;100.00;96109.63;4840921;29;20133;-81
2023/08/28 08:49:38;;;;;;;0.20;0.20;;;;;;;15.74;100.00;96119.72;4843229;29;20052;-81
2023/08/28 08:52:25;;;;;;;0.20;0.20;;;;;;;15.81;100.00;96116.69;4842893;29;20523;-81
2023/08/28 08:55:37;;;;;;;0.10;0.10;;;;;;;15.96;100.00;96121.88;4842493;29;20050;-80
2023/08/28 08:58:24;;;;;;;0.10;0.10;;;;;;;16.22;100.00;96135.81;4843633;29;20093;-81
2023/08/28 09:01:11;;;;;;;0.10;0.10;;;;;;;16.48;100.00;96138.13;4842326;29;20049;-81
2023/08/28 09:03:58;;;;;;;0.10;0.10;;;;;;;16.60;100.00;96143.91;4841742;29;20050;-81
2023/08/28 09:06:46;;;;;;;0.10;0.10;;;;;;;16.68;100.00;96149.44;4842797;29;20970;-81
2023/08/28 09:09:33;;;;;;;0.20;0.20;;;;;;;17.02;100.00;96134.84;4843363;29;20046;-81
2023/08/28 09:12:19;;;;;;;0.10;0.10;;;;;;;17.25;100.00;96136.59;4844628;29;20267;-81
2023/08/28 09:15:06;;;;;;;0.13;0.13;;;;;;;17.41;100.00;96123.56;4842421;29;20132;-81
2023/08/28 09:17:52;;;;;;;0.10;0.10;;;;;;;17.53;100.00;96142.03;4843908;29;20077;-82
2023/08/28 09:20:38;;;;;;;0.15;0.15;;;;;;;17.56;100.00;96125.19;4844538;29;20045;-82
2023/08/28 09:23:31;;;;;;;0.10;0.10;;;;;;;17.75;100.00;96127.84;4843382;29;20045;-82
2023/08/28 09:26:22;;;;;;;0.10;0.10;;;;;;;17.73;100.00;96116.50;4843500;29;20101;-82
2023/08/28 09:29:08;;;;;;;0.10;0.10;;;;;;;17.65;100.00;96103.63;4844062;29;20045;-81
2023/08/28 09:32:03;;;;;;;0.20;0.20;;;;;;;17.57;100.00;96112.47;4843768;29;20067;-82
2023/08/28 09:34:48;;;;;;;0.20;0.20;;;;;;;17.63;100.00;96109.34;4844628;29;20084;-82
2023/08/28 09:37:34;;;;;;;0.10;0.10;;;;;;;17.86;100.00;96104.84;4842529;29;20160;-81
2023/08/28 09:40:31;;;;;;;0.20;0.20;;;;;;;18.00;100.00;96102.94;4843248;29;20084;-82
2023/08/28 09:43:17;;;;;;;0.15;0.15;;;;;;;18.12;100.00;96107.81;4843095;29;20049;-82
2023/08/28 09:46:04;;;;;;;0.20;0.20;;;;;;;17.89;100.00;96109.66;4843570;29;20105;-81
2023/08/28 09:48:50;;;;;;;0.10;0.10;;;;;;;18.00;100.00;96108.34;4841747;29;20137;-81
2023/08/28 09:51:47;;;;;;;0.10;0.10;;;;;;;17.71;100.00;96116.00;4842687;29;20500;-81
2023/08/28 09:54:33;;;;;;;0.13;0.13;;;;;;;17.54;100.00;96119.28;4843641;29;20144;-81
2023/08/28 09:57:19;;;;;;;0.10;0.10;;;;;;;17.63;100.00;96122.09;4842827;29;20068;-82
2023/08/28 10:00:06;;;;;;;0.20;0.20;;;;;;;17.73;100.00;96119.19;4840020;29;20491;-82
2023/08/28 10:02:54;;;;;;;0.13;0.13;;;;;;;17.88;100.00;96132.41;4828329;29;20050;-81
2023/08/28 10:05:42;;;;;;;0.20;0.20;;;;;;;17.96;100.00;96131.69;4843457;29;20652;-83
2023/08/28 10:08:31;;;;;;;0.20;0.20;;;;;;;18.12;100.00;96126.75;4843749;29;20053;-82
2023/08/28 10:11:17;;;;;;;0.03;0.03;;;;;;;18.33;100.00;96124.41;4843236;29;20041;-82
2023/08/28 10:14:04;;;;;;;0.17;0.17;;;;;;;18.57;100.00;96121.41;4842801;29;20522;-82
2023/08/28 10:16:57;;;;;;;0.10;0.10;;;;;;;18.80;100.00;96135.78;4842007;29;20526;-82
2023/08/28 10:19:50;;;;;;;0.10;0.10;;;;;;;19.00;100.00;96132.59;4842380;29;20053;-82
2023/08/28 10:22:38;;;;;;;0.10;0.10;;;;;;;19.02;100.00;96133.06;4828174;29;20554;-81
2023/08/28 10:25:25;;;;;;;0.20;0.20;;;;;;;19.14;100.00;96141.44;4842798;29;20057;-82
2023/08/28 10:28:11;;;;;;;0.15;0.15;;;;;;;19.39;100.00;96141.88;4843165;29;20045;-83
2023/08/28 10:30:58;;;;;;;0.13;0.13;;;;;;;19.68;100.00;96133.22;4841808;29;20049;-82
2023/08/28 10:33:46;;;;;;;0.10;0.10;;;;;;;19.63;100.00;96141.53;4841896;29;20116;-83
2023/08/28 10:36:33;;;;;;;0.20;0.20;;;;;;;19.65;100.00;96167.25;4840716;29;20045;-81
2023/08/28 10:39:19;;;;;;;0.10;0.10;;;;;;;19.97;100.00;96160.63;4840999;29;20049;-81
2023/08/28 10:42:08;;;;;;;0.10;0.10;;;;;;;20.16;100.00;96156.88;4841225;29;20037;-81
2023/08/28 10:44:55;;;;;;;0.10;0.10;;;;;;;20.42;100.00;96135.16;4840926;29;20664;-81
2023/08/28 10:47:49;;;;;;;0.10;0.10;;;;;;;20.57;100.00;96121.91;4841867;29;20136;-82
2023/08/28 10:50:36;;;;;;;0.10;0.10;;;;;;;20.46;100.00;96125.25;4840986;29;20053;-82
2023/08/28 10:53:23;;;;;;;0.10;0.10;;;;;;;20.94;100.00;96133.25;4841186;29;20124;-81
2023/08/28 10:56:10;;;;;;;0.10;0.10;;;;;;;21.31;100.00;96134.44;4841725;29;20499;-82
2023/08/28 10:59:25;;;;;;;0.10;0.10;;;;;;;21.78;100.00;96142.59;4840892;29;20045;-82
2023/08/28 11:02:12;;;;;;;0.20;0.20;;;;;;;21.57;100.00;96136.31;4838547;29;20050;-82
2023/08/28 11:05:13;;;;;;;0.13;0.13;;;;;;;22.38;95.46;96144.19;4827652;29;20045;-82
2023/08/28 11:08:04;;;;;;;0.15;0.15;;;;;;;22.04;94.69;96150.66;4840532;29;20050;-82
2023/08/28 11:11:13;;;;;;;0.10;0.10;;;;;;;21.29;99.54;96152.22;4840215;29;20077;-81
2023/08/28 11:14:01;;;;;;;0.10;0.10;;;;;;;21.30;100.00;96142.94;4841353;29;20041;-84
2023/08/28 11:16:47;;;;;;;0.10;0.10;;;;;;;20.44;100.00;96146.53;4841608;29;20068;-81
2023/08/28 11:19:56;;;;;;;0.10;0.10;;;;;;;20.55;100.00;96135.03;4842164;29;20053;-82
2023/08/28 11:22:45;;;;;;;0.20;0.20;;;;;;;22.06;95.13;96128.53;4841518;29;20428;-82
2023/08/28 11:25:38;;;;;;;0.20;0.20;;;;;;;23.90;88.26;96130.84;4841745;29;20539;-82
2023/08/28 11:28:25;;;;;;;0.22;0.22;;;;;;;25.91;73.23;96138.09;4842656;29;20041;-82
2023/08/28 11:31:12;;;;;;;0.10;0.10;;;;;;;25.56;69.08;96141.50;4842046;29;20068;-82
2023/08/28 11:33:58;;;;;;;0.10;0.10;;;;;;;23.58;82.34;96136.03;4839853;29;20092;-80
2023/08/28 11:36:45;;;;;;;0.10;0.10;;;;;;;22.36;93.51;96129.31;4841412;29;20052;-80
2023/08/28 11:39:30;;;;;;;0.13;0.13;;;;;;;20.88;100.00;96136.44;4840862;29;20049;-83
2023/08/28 11:42:19;;;;;;;0.20;0.20;;;;;;;21.29;97.38;96131.25;4842027;29;20740;-83
2023/08/28 11:45:06;;;;;;;0.00;0.00;;;;;;;22.56;93.38;96125.78;4840002;29;20243;-82
2023/08/28 11:47:51;;;;;;;0.10;0.10;;;;;;;26.71;63.67;96123.06;4839457;29;20059;-83
2023/08/28 11:50:37;;;;;;;0.10;0.10;;;;;;;25.98;68.69;96119.06;4840040;29;20061;-82
2023/08/28 11:53:34;;;;;;;0.20;0.20;;;;;;;28.56;46.90;96118.88;4838895;29;20512;-82
2023/08/28 11:56:20;;;;;;;0.20;0.20;;;;;;;32.49;36.03;96112.91;4841194;29;20278;-81
2023/08/28 11:59:07;;;;;;;0.10;0.10;;;;;;;30.06;39.31;96119.66;4840577;29;20042;-82
2023/08/28 12:01:53;;;;;;;0.10;0.10;;;;;;;28.17;50.37;96117.47;4838249;29;20048;-82
2023/08/28 12:04:42;;;;;;;0.10;0.10;;;;;;;28.31;45.75;96118.50;4841096;29;20084;-82
2023/08/28 12:07:28;;;;;;;0.20;0.20;;;;;;;27.25;53.19;96103.78;4842327;29;20555;-83
2023/08/28 12:10:16;;;;;;;0.10;0.10;;;;;;;27.93;48.36;96116.72;4841772;29;20049;-83
2023/08/28 12:13:02;;;;;;;0.10;0.10;;;;;;;28.26;51.72;96110.56;4842042;29;20060;-81
2023/08/28 12:15:48;;;;;;;0.10;0.10;;;;;;;27.42;52.66;96106.03;4838692;29;20060;-82
2023/08/28 12:18:43;;;;;;;0.10;0.10;;;;;;;27.14;47.89;96095.31;4838050;29;20109;-81
2023/08/28 12:21:34;;;;;;;0.10;0.10;;;;;;;26.41;56.46;96101.69;4842208;29;20092;-82
2023/08/28 12:24:26;;;;;;;0.10;0.10;;;;;;;28.00;50.19;96096.78;4843797;29;20050;-82
2023/08/28 12:27:13;;;;;;;0.10;0.10;;;;;;;27.17;47.93;96091.06;4844478;29;20046;-82
2023/08/28 12:29:59;;;;;;;0.10;0.10;;;;;;;26.82;58.34;96077.41;4844332;29;20053;-83
2023/08/28 12:32:52;;;;;;;0.10;0.10;;;;;;;27.05;48.81;96063.78;4843530;29;20065;-83
2023/08/28 12:35:40;;;;;;;0.10;0.10;;;;;;;26.94;56.09;96056.13;4843999;29;20121;-82
2023/08/28 12:38:27;;;;;;;0.10;0.10;;;;;;;25.51;65.22;96059.59;4841736;29;20101;-83
2023/08/28 12:41:15;;;;;;;0.10;0.10;;;;;;;25.95;67.40;96059.50;4843262;29;20910;-82
2023/08/28 12:44:02;;;;;;;0.10;0.10;;;;;;;26.01;56.88;96066.31;4809481;29;20057;-82
2023/08/28 12:46:49;;;;;;;0.20;0.20;;;;;;;26.64;56.54;96052.38;4841491;29;20930;-83
2023/08/28 12:49:35;;;;;;;0.20;0.20;;;;;;;29.48;44.04;96048.66;4830459;29;20081;-83
2023/08/28 12:52:21;;;;;;;0.10;0.10;;;;;;;32.71;32.46;96045.19;4844326;29;20045;-83
2023/08/28 12:55:07;;;;;;;0.10;0.10;;;;;;;34.50;29.00;96045.47;4843765;29;20083;-82
2023/08/28 12:57:53;;;;;;;0.20;0.20;;;;;;;36.80;26.07;96039.44;4843790;29;20049;-82
2023/08/28 13:00:39;;;;;;;0.10;0.10;;;;;;;35.71;26.96;96048.56;4842700;29;20837;-82
2023/08/28 13:03:25;;;;;;;0.20;0.20;;;;;;;36.68;27.16;96056.81;4843002;29;20050;-82